Time,TemperatureF,DewpointF,PressureIn,WindDirection,WindDirectionDegrees,WindSpeedMPH,WindSpeedGustMPH,Humidity,HourlyPrecipIn,Conditions,Clouds,dailyrainin,SoftwareType,DateUTC
2013-04-08 07:14:00,43.8,16.6,29.55,West,270,0.0,0.0,33,0.00,,---,0.00,VWS V14.00,2013-04-08 12:14:00,
2013-04-08 07:15:00,63.1,21.4,29.47,West,263,0.0,0.0,20,0.00,,---,0.00,VWS V14.00,2013-04-08 12:15:00,
2013-04-08 07:19:00,63.7,20.7,29.47,West,265,2.0,6.0,19,0.00,,---,0.00,VWS V14.00,2013-04-08 12:19:00,
2013-04-08 07:20:00,63.5,20.5,29.47,West,265,0.0,6.0,19,0.00,,---,0.00,VWS V14.00,2013-04-08 12:20:00,
2013-04-08 07:24:00,64.0,20.9,29.47,West,275,10.0,12.0,19,0.00,,---,0.00,VWS V14.00,2013-04-08 12:24:00,
2013-04-08 07:25:00,64.2,21.1,29.47,West,278,5.0,12.0,19,0.00,,---,0.00,VWS V14.00,2013-04-08 12:25:00,
2013-04-08 07:29:00,64.0,22.1,29.47,West,272,0.0,0.0,20,0.00,,---,0.00,VWS V14.00,2013-04-08 12:29:00,
2013-04-08 07:30:00,63.9,22.1,29.47,West,272,0.0,0.0,20,0.00,,---,0.00,VWS V14.00,2013-04-08 12:30:00,
2013-04-08 07:31:00,63.9,22.1,29.47,West,271,0.0,0.0,20,0.00,,---,0.00,VWS V14.00,2013-04-08 12:31:00,
2013-04-08 07:34:00,63.5,20.5,29.47,WSW,256,0.0,12.0,19,0.00,,---,0.00,VWS V14.00,2013-04-08 12:34:00,
2013-04-08 07:35:00,63.5,20.5,29.47,WSW,256,0.0,12.0,19,0.00,,---,0.00,VWS V14.00,2013-04-08 12:35:00,
2013-04-08 07:36:00,63.2,21.5,29.47,WSW,256,0.0,12.0,20,0.00,,---,0.00,VWS V14.00,2013-04-08 12:36:00,
2013-04-08 07:40:00,62.0,20.5,29.47,WSW,240,0.0,12.0,20,0.00,,---,0.00,VWS V14.00,2013-04-08 12:40:00,
2013-04-08 07:41:00,61.6,20.2,29.47,WSW,240,0.0,12.0,20,0.00,,---,0.00,VWS V14.00,2013-04-08 12:41:00,
2013-04-08 07:45:00,61.3,21.1,29.48,SW,230,0.0,12.0,21,0.00,,---,0.00,VWS V14.00,2013-04-08 12:45:00,
2013-04-08 07:47:00,61.3,21.1,29.48,SW,230,0.0,12.0,21,0.00,,---,0.00,VWS V14.00,2013-04-08 12:47:00,
2013-04-08 07:50:00,61.3,21.1,29.48,SW,232,0.0,12.0,21,0.00,,---,0.00,VWS V14.00,2013-04-08 12:50:00,
2013-04-08 07:51:00,61.2,21.0,29.48,SW,232,0.0,12.0,21,0.00,,---,0.00,VWS V14.00,2013-04-08 12:51:00,
2013-04-08 07:53:00,60.7,21.7,29.48,SW,230,0.0,12.0,22,0.00,,---,0.00,VWS V14.00,2013-04-08 12:53:00,
2013-04-08 07:55:00,59.9,21.0,29.48,SW,232,0.0,12.0,22,0.00,,---,0.00,VWS V14.00,2013-04-08 12:55:00,
2013-04-08 07:56:00,59.9,21.0,29.48,SW,232,0.0,12.0,22,0.00,,---,0.00,VWS V14.00,2013-04-08 12:56:00,
2013-04-08 07:58:00,59.5,21.7,29.48,SW,232,0.0,12.0,23,0.00,,---,0.00,VWS V14.00,2013-04-08 12:58:00,
2013-04-08 08:00:00,59.0,21.3,29.50,SW,232,0.0,0.0,23,0.00,,---,0.00,VWS V14.00,2013-04-08 13:00:00,
2013-04-08 08:01:00,59.0,21.3,29.50,SW,232,0.0,0.0,23,0.00,,---,0.00,VWS V14.00,2013-04-08 13:01:00,
2013-04-08 08:03:00,58.9,21.2,29.50,SW,232,0.0,0.0,23,0.00,,---,0.00,VWS V14.00,2013-04-08 13:03:00,
2013-04-08 08:06:00,59.0,21.3,29.50,SW,232,0.0,0.0,23,0.00,,---,0.00,VWS V14.00,2013-04-08 13:06:00,
2013-04-08 08:08:00,59.3,21.5,29.50,SW,232,0.0,0.0,23,0.00,,---,0.00,VWS V14.00,2013-04-08 13:08:00,
2013-04-08 08:11:00,59.3,20.5,29.50,SW,232,0.0,0.0,22,0.00,,---,0.00,VWS V14.00,2013-04-08 13:11:00,
2013-04-08 08:13:00,59.2,21.4,29.50,SW,232,0.0,0.0,23,0.00,,---,0.00,VWS V14.00,2013-04-08 13:13:00,
2013-04-08 08:16:00,60.1,21.1,29.55,SW,226,0.0,0.0,22,0.00,,---,0.00,VWS V14.00,2013-04-08 13:16:00,
2013-04-08 08:17:00,60.1,21.1,29.55,SW,226,0.0,0.0,22,0.00,,---,0.00,VWS V14.00,2013-04-08 13:17:00,
2013-04-08 08:19:00,60.5,21.5,29.55,SW,226,0.0,0.0,22,0.00,,---,0.00,VWS V14.00,2013-04-08 13:19:00,
2013-04-08 08:21:00,61.0,21.9,29.55,SW,226,0.0,0.0,22,0.00,,---,0.00,VWS V14.00,2013-04-08 13:21:00,
2013-04-08 08:22:00,61.0,21.9,29.55,SW,226,0.0,0.0,22,0.00,,---,0.00,VWS V14.00,2013-04-08 13:22:00,
2013-04-08 08:24:00,61.3,22.2,29.55,SW,226,0.0,0.0,22,0.00,,---,0.00,VWS V14.00,2013-04-08 13:24:00,
2013-04-08 08:26:00,61.5,22.3,29.55,SW,226,0.0,0.0,22,0.00,,---,0.00,VWS V14.00,2013-04-08 13:26:00,
2013-04-08 08:27:00,61.5,22.3,29.55,SW,226,0.0,0.0,22,0.00,,---,0.00,VWS V14.00,2013-04-08 13:27:00,
2013-04-08 08:31:00,62.6,23.2,29.54,SW,226,0.0,0.0,22,0.00,,---,0.00,VWS V14.00,2013-04-08 13:31:00,
2013-04-08 08:32:00,62.7,22.2,29.54,SW,226,0.0,0.0,21,0.00,,---,0.00,VWS V14.00,2013-04-08 13:32:00,
2013-04-08 08:36:00,63.2,21.5,29.54,SW,226,0.0,0.0,20,0.00,,---,0.00,VWS V14.00,2013-04-08 13:36:00,
2013-04-08 08:37:00,63.5,22.9,29.54,SW,224,0.0,0.0,21,0.00,,---,0.00,VWS V14.00,2013-04-08 13:37:00,
2013-04-08 08:42:00,64.2,22.3,29.54,SW,224,0.0,0.0,20,0.00,,---,0.00,VWS V14.00,2013-04-08 13:42:00,
2013-04-08 08:43:00,64.3,22.4,29.54,SW,224,0.0,0.0,20,0.00,,---,0.00,VWS V14.00,2013-04-08 13:43:00,
2013-04-08 08:46:00,65.0,21.8,29.53,SW,219,0.0,0.0,19,0.00,,---,0.00,VWS V14.00,2013-04-08 13:46:00,
2013-04-08 08:47:00,65.2,21.9,29.53,SW,219,0.0,0.0,19,0.00,,---,0.00,VWS V14.00,2013-04-08 13:47:00,
2013-04-08 08:48:00,65.3,22.0,29.53,SW,219,0.0,0.0,19,0.00,,---,0.00,VWS V14.00,2013-04-08 13:48:00,
2013-04-08 08:52:00,66.0,22.6,29.53,SW,222,0.0,0.0,19,0.00,,---,0.00,VWS V14.00,2013-04-08 13:52:00,
2013-04-08 08:53:00,66.1,22.7,29.53,SW,222,0.0,0.0,19,0.00,,---,0.00,VWS V14.00,2013-04-08 13:53:00,
2013-04-08 08:57:00,66.9,22.0,29.53,SW,220,0.0,0.0,18,0.00,,---,0.00,VWS V14.00,2013-04-08 13:57:00,
2013-04-08 08:58:00,66.9,22.0,29.53,SW,220,0.0,0.0,18,0.00,,---,0.00,VWS V14.00,2013-04-08 13:58:00,
2013-04-08 08:59:00,66.9,22.0,29.52,SW,220,0.0,0.0,18,0.00,,---,0.00,VWS V14.00,2013-04-08 13:59:00,
2013-04-08 09:02:00,67.4,22.5,29.52,SW,220,0.0,0.0,18,0.00,,---,0.00,VWS V14.00,2013-04-08 14:02:00,
2013-04-08 09:03:00,67.4,22.5,29.52,SW,220,0.0,0.0,18,0.00,,---,0.00,VWS V14.00,2013-04-08 14:03:00,
2013-04-08 09:04:00,67.4,22.5,29.52,SW,220,0.0,0.0,18,0.00,,---,0.00,VWS V14.00,2013-04-08 14:04:00,
2013-04-08 09:07:00,67.4,22.5,29.52,SW,220,0.0,0.0,18,0.00,,---,0.00,VWS V14.00,2013-04-08 14:07:00,
2013-04-08 09:08:00,67.4,22.5,29.52,SW,220,0.0,0.0,18,0.00,,---,0.00,VWS V14.00,2013-04-08 14:08:00,
2013-04-08 09:09:00,67.4,22.5,29.52,SW,220,0.0,0.0,18,0.00,,---,0.00,VWS V14.00,2013-04-08 14:09:00,
2013-04-08 09:12:00,67.4,22.5,29.52,SW,220,0.0,0.0,18,0.00,,---,0.00,VWS V14.00,2013-04-08 14:12:00,
2013-04-08 09:14:00,67.4,22.5,29.57,SW,220,0.0,0.0,18,0.00,,---,0.00,VWS V14.00,2013-04-08 14:14:00,
2013-04-08 09:15:00,67.4,22.5,29.57,SW,220,0.0,0.0,18,0.00,,---,0.00,VWS V14.00,2013-04-08 14:15:00,
2013-04-08 09:17:00,67.4,22.5,29.57,SW,220,0.0,0.0,18,0.00,,---,0.00,VWS V14.00,2013-04-08 14:17:00,
2013-04-08 09:19:00,67.4,22.5,29.57,SW,220,0.0,0.0,18,0.00,,---,0.00,VWS V14.00,2013-04-08 14:19:00,
2013-04-08 09:20:00,67.4,22.5,29.57,SW,220,0.0,0.0,18,0.00,,---,0.00,VWS V14.00,2013-04-08 14:20:00,
2013-04-08 09:22:00,67.4,22.5,29.57,SW,220,0.0,0.0,18,0.00,,---,0.00,VWS V14.00,2013-04-08 14:22:00,
2013-04-08 09:24:00,67.4,22.5,29.57,SW,220,0.0,0.0,18,0.00,,---,0.00,VWS V14.00,2013-04-08 14:24:00,
2013-04-08 09:25:00,67.4,22.5,29.57,SW,220,0.0,0.0,18,0.00,,---,0.00,VWS V14.00,2013-04-08 14:25:00,
2013-04-08 09:27:00,67.4,22.5,29.57,SW,220,0.0,0.0,18,0.00,,---,0.00,VWS V14.00,2013-04-08 14:27:00,
2013-04-08 09:29:00,67.4,22.5,29.61,SW,220,0.0,0.0,18,0.00,,---,0.00,VWS V14.00,2013-04-08 14:29:00,
2013-04-08 09:31:00,67.4,22.5,29.61,SW,220,0.0,0.0,18,0.00,,---,0.00,VWS V14.00,2013-04-08 14:31:00,
2013-04-08 09:32:00,67.4,22.5,29.61,SW,220,0.0,0.0,18,0.00,,---,0.00,VWS V14.00,2013-04-08 14:32:00,
2013-04-08 09:35:00,67.4,22.5,29.61,SW,220,0.0,0.0,18,0.00,,---,0.00,VWS V14.00,2013-04-08 14:35:00,
2013-04-08 09:36:00,67.4,22.5,29.61,SW,220,0.0,0.0,18,0.00,,---,0.00,VWS V14.00,2013-04-08 14:36:00,
2013-04-08 09:37:00,67.4,22.5,29.61,SW,220,0.0,0.0,18,0.00,,---,0.00,VWS V14.00,2013-04-08 14:37:00,
2013-04-08 09:40:00,67.4,22.5,29.61,SW,220,0.0,0.0,18,0.00,,---,0.00,VWS V14.00,2013-04-08 14:40:00,
2013-04-08 09:42:00,67.4,22.5,29.61,SW,220,0.0,0.0,18,0.00,,---,0.00,VWS V14.00,2013-04-08 14:42:00,
2013-04-08 09:43:00,67.4,22.5,29.61,SW,220,0.0,0.0,18,0.00,,---,0.00,VWS V14.00,2013-04-08 14:43:00,
2013-04-08 09:45:00,67.4,22.5,29.61,SW,220,0.0,0.0,18,0.00,,---,0.00,VWS V14.00,2013-04-08 14:45:00,
2013-04-08 09:47:00,67.4,22.5,29.61,SW,220,0.0,0.0,18,0.00,,---,0.00,VWS V14.00,2013-04-08 14:47:00,
2013-04-08 09:48:00,67.4,22.5,29.61,SW,220,0.0,0.0,18,0.00,,---,0.00,VWS V14.00,2013-04-08 14:48:00,
2013-04-08 09:50:00,67.4,22.5,29.61,SW,220,0.0,0.0,18,0.00,,---,0.00,VWS V14.00,2013-04-08 14:50:00,
2013-04-08 09:52:00,67.4,22.5,29.61,SW,220,0.0,0.0,18,0.00,,---,0.00,VWS V14.00,2013-04-08 14:52:00,
2013-04-08 09:53:00,67.4,22.5,29.61,SW,220,0.0,0.0,18,0.00,,---,0.00,VWS V14.00,2013-04-08 14:53:00,
2013-04-08 09:55:00,67.4,22.5,29.61,SW,220,0.0,0.0,18,0.00,,---,0.00,VWS V14.00,2013-04-08 14:55:00,
2013-04-08 09:57:00,67.4,22.5,29.61,SW,220,0.0,0.0,18,0.00,,---,0.00,VWS V14.00,2013-04-08 14:57:00,
2013-04-08 09:58:00,67.4,22.5,29.61,SW,220,0.0,0.0,18,0.00,,---,0.00,VWS V14.00,2013-04-08 14:58:00,
2013-04-08 10:00:00,67.4,22.5,29.62,SW,220,0.0,0.0,18,0.00,,---,0.00,VWS V14.00,2013-04-08 15:00:00,
2013-04-08 10:02:00,67.4,22.5,29.62,SW,220,0.0,0.0,18,0.00,,---,0.00,VWS V14.00,2013-04-08 15:02:00,
2013-04-08 10:03:00,67.4,22.5,29.62,SW,220,0.0,0.0,18,0.00,,---,0.00,VWS V14.00,2013-04-08 15:03:00,
2013-04-08 10:05:00,71.6,23.1,29.62,SW,232,3.0,11.0,16,0.00,,---,0.00,VWS V14.00,2013-04-08 15:05:00,
2013-04-08 10:07:00,71.8,21.7,29.62,SW,224,7.0,11.0,15,0.00,,---,0.00,VWS V14.00,2013-04-08 15:07:00,
2013-04-08 10:08:00,71.6,21.5,29.62,SW,215,16.0,16.0,15,0.00,,---,0.00,VWS V14.00,2013-04-08 15:08:00,
2013-04-08 10:11:00,72.0,21.9,29.62,West,274,5.0,16.0,15,0.00,,---,0.00,VWS V14.00,2013-04-08 15:11:00,
2013-04-08 10:12:00,72.1,21.9,29.62,WSW,240,1.0,16.0,15,0.00,,---,0.00,VWS V14.00,2013-04-08 15:12:00,
2013-04-08 10:13:00,72.1,21.9,29.62,SW,222,5.0,16.0,15,0.00,,---,0.00,VWS V14.00,2013-04-08 15:13:00,
2013-04-08 10:16:00,72.0,21.9,29.57,WNW,284,11.0,16.0,15,0.00,,---,0.00,VWS V14.00,2013-04-08 15:16:00,
2013-04-08 10:18:00,72.1,21.9,29.57,SW,220,0.0,16.0,15,0.00,,---,0.00,VWS V14.00,2013-04-08 15:18:00,
2013-04-08 10:19:00,72.1,21.9,29.57,SW,220,0.0,16.0,15,0.00,,---,0.00,VWS V14.00,2013-04-08 15:19:00,
2013-04-08 10:22:00,72.5,22.3,29.57,WNW,282,1.0,16.0,15,0.00,,---,0.00,VWS V14.00,2013-04-08 15:22:00,
2013-04-08 10:23:00,72.5,22.3,29.57,WNW,282,1.0,16.0,15,0.00,,---,0.00,VWS V14.00,2013-04-08 15:23:00,
2013-04-08 10:24:00,72.1,21.9,29.57,West,281,8.0,16.0,15,0.00,,---,0.00,VWS V14.00,2013-04-08 15:24:00,
2013-04-08 10:27:00,72.1,21.9,29.57,West,281,8.0,16.0,15,0.00,,---,0.00,VWS V14.00,2013-04-08 15:27:00,
2013-04-08 10:28:00,72.3,22.1,29.57,SW,232,0.0,16.0,15,0.00,,---,0.00,VWS V14.00,2013-04-08 15:28:00,
2013-04-08 10:32:00,72.3,22.1,29.57,WSW,244,0.0,2.0,15,0.00,,---,0.00,VWS V14.00,2013-04-08 15:32:00,
2013-04-08 10:33:00,72.3,22.1,29.57,WSW,244,0.0,2.0,15,0.00,,---,0.00,VWS V14.00,2013-04-08 15:33:00,
2013-04-08 10:37:00,72.3,22.1,29.57,West,263,0.0,2.0,15,0.00,,---,0.00,VWS V14.00,2013-04-08 15:37:00,
2013-04-08 10:38:00,72.3,22.1,29.57,West,263,0.0,2.0,15,0.00,,---,0.00,VWS V14.00,2013-04-08 15:38:00,
2013-04-08 10:40:00,72.5,22.3,29.57,SSW,203,5.0,11.0,15,0.00,,---,0.00,VWS V14.00,2013-04-08 15:40:00,
2013-04-08 10:42:00,72.3,22.1,29.57,West,264,0.0,11.0,15,0.00,,---,0.00,VWS V14.00,2013-04-08 15:42:00,
2013-04-08 10:43:00,72.3,22.1,29.57,SSW,205,3.0,11.0,15,0.00,,---,0.00,VWS V14.00,2013-04-08 15:43:00,
2013-04-08 10:44:00,72.3,22.1,29.57,SSW,205,2.0,11.0,15,0.00,,---,0.00,VWS V14.00,2013-04-08 15:44:00,
2013-04-08 10:45:00,72.3,22.1,29.57,WSW,246,6.0,11.0,15,0.00,,---,0.00,VWS V14.00,2013-04-08 15:45:00,
2013-04-08 10:47:00,72.3,22.1,29.57,SW,227,0.0,17.0,15,0.00,,---,0.00,VWS V14.00,2013-04-08 15:47:00,
2013-04-08 10:48:00,72.3,22.1,29.57,West,270,4.0,17.0,15,0.00,,---,0.00,VWS V14.00,2013-04-08 15:48:00,
2013-04-08 10:50:00,72.8,22.5,29.57,WSW,243,0.0,17.0,15,0.00,,---,0.00,VWS V14.00,2013-04-08 15:50:00,
2013-04-08 10:51:00,73.0,21.0,29.57,WSW,244,0.0,17.0,14,0.00,,---,0.00,VWS V14.00,2013-04-08 15:51:00,
2013-04-08 10:52:00,72.7,20.8,29.57,WSW,240,7.0,18.0,14,0.00,,---,0.00,VWS V14.00,2013-04-08 15:52:00,
2013-04-08 10:54:00,72.8,20.9,29.57,SW,219,7.0,18.0,14,0.00,,---,0.00,VWS V14.00,2013-04-08 15:54:00,
2013-04-08 10:55:00,72.8,20.9,29.57,SW,220,1.0,18.0,14,0.00,,---,0.00,VWS V14.00,2013-04-08 15:55:00,
2013-04-08 10:56:00,73.0,21.0,29.57,SW,220,5.0,18.0,14,0.00,,---,0.00,VWS V14.00,2013-04-08 15:56:00,
2013-04-08 10:57:00,73.2,21.2,29.57,SW,229,2.0,18.0,14,0.00,,---,0.00,VWS V14.00,2013-04-08 15:57:00,
2013-04-08 10:59:00,73.5,21.4,29.57,WSW,246,8.0,8.0,14,0.00,,---,0.00,VWS V14.00,2013-04-08 15:59:00,
2013-04-08 11:00:00,73.0,21.0,29.57,SW,226,6.0,8.0,14,0.00,,---,0.00,VWS V14.00,2013-04-08 16:00:00,
2013-04-08 11:01:00,73.0,21.0,29.57,SW,226,5.0,8.0,14,0.00,,---,0.00,VWS V14.00,2013-04-08 16:01:00,
2013-04-08 11:02:00,72.8,20.9,29.57,WSW,257,2.0,13.0,14,0.00,,---,0.00,VWS V14.00,2013-04-08 16:02:00,
2013-04-08 11:05:00,73.0,21.0,29.57,SW,223,11.0,14.0,14,0.00,,---,0.00,VWS V14.00,2013-04-08 16:05:00,
2013-04-08 11:07:00,73.0,21.0,29.57,SW,222,11.0,14.0,14,0.00,,---,0.00,VWS V14.00,2013-04-08 16:07:00,
2013-04-08 11:08:00,73.0,21.0,29.57,West,274,0.0,14.0,14,0.00,,---,0.00,VWS V14.00,2013-04-08 16:08:00,
2013-04-08 11:10:00,72.7,22.4,29.57,WSW,254,1.0,14.0,15,0.00,,---,0.00,VWS V14.00,2013-04-08 16:10:00,
2013-04-08 11:12:00,72.7,22.4,29.57,WSW,237,0.0,14.0,15,0.00,,---,0.00,VWS V14.00,2013-04-08 16:12:00,
2013-04-08 11:13:00,72.7,22.4,29.57,WSW,237,0.0,14.0,15,0.00,,---,0.00,VWS V14.00,2013-04-08 16:13:00,
2013-04-08 11:16:00,72.7,22.4,29.58,SW,226,1.0,14.0,15,0.00,,---,0.00,VWS V14.00,2013-04-08 16:16:00,
2013-04-08 11:17:00,72.8,22.5,29.58,SW,233,1.0,14.0,15,0.00,,---,0.00,VWS V14.00,2013-04-08 16:17:00,
2013-04-08 11:19:00,72.5,20.6,29.58,West,267,12.0,14.0,14,0.00,,---,0.00,VWS V14.00,2013-04-08 16:19:00,
2013-04-08 11:21:00,73.0,21.0,29.58,WSW,240,0.0,14.0,14,0.00,,---,0.00,VWS V14.00,2013-04-08 16:21:00,
2013-04-08 11:22:00,72.7,20.8,29.58,West,275,12.0,14.0,14,0.00,,---,0.00,VWS V14.00,2013-04-08 16:22:00,
2013-04-08 11:24:00,72.7,22.4,29.58,WSW,250,6.0,14.0,15,0.00,,---,0.00,VWS V14.00,2013-04-08 16:24:00,
2013-04-08 11:26:00,72.8,20.9,29.58,SW,224,8.0,14.0,14,0.00,,---,0.00,VWS V14.00,2013-04-08 16:26:00,
2013-04-08 11:27:00,72.7,22.4,29.58,SW,224,0.0,14.0,15,0.00,,---,0.00,VWS V14.00,2013-04-08 16:27:00,
2013-04-08 11:29:00,72.8,20.9,29.57,SW,224,10.0,16.0,14,0.00,,---,0.00,VWS V14.00,2013-04-08 16:29:00,
2013-04-08 11:31:00,73.0,21.0,29.57,SW,234,3.0,8.0,14,0.00,,---,0.00,VWS V14.00,2013-04-08 16:31:00,
2013-04-08 11:33:00,73.2,21.2,29.57,SW,234,10.0,17.0,14,0.00,,---,0.00,VWS V14.00,2013-04-08 16:33:00,
2013-04-08 11:34:00,72.5,22.3,29.57,SW,217,5.0,21.0,15,0.00,,---,0.00,VWS V14.00,2013-04-08 16:34:00,
2013-04-08 11:37:00,73.0,22.7,29.57,SW,223,3.0,21.0,15,0.00,,---,0.00,VWS V14.00,2013-04-08 16:37:00,
2013-04-08 11:38:00,73.0,22.7,29.57,SW,220,6.0,21.0,15,0.00,,---,0.00,VWS V14.00,2013-04-08 16:38:00,
2013-04-08 11:39:00,73.5,21.4,29.57,WSW,258,0.0,21.0,14,0.00,,---,0.00,VWS V14.00,2013-04-08 16:39:00,
2013-04-08 11:42:00,73.7,21.6,29.57,SW,217,0.0,21.0,14,0.00,,---,0.00,VWS V14.00,2013-04-08 16:42:00,
2013-04-08 11:43:00,74.0,21.8,29.57,SW,217,6.0,21.0,14,0.00,,---,0.00,VWS V14.00,2013-04-08 16:43:00,
2013-04-08 11:44:00,73.7,21.6,29.57,West,270,10.0,21.0,14,0.00,,---,0.00,VWS V14.00,2013-04-08 16:44:00,
2013-04-08 11:47:00,73.5,21.4,29.57,West,268,9.0,21.0,14,0.00,,---,0.00,VWS V14.00,2013-04-08 16:47:00,
2013-04-08 11:48:00,73.7,21.6,29.57,West,264,17.0,21.0,14,0.00,,---,0.00,VWS V14.00,2013-04-08 16:48:00,
2013-04-08 11:50:00,73.5,21.4,29.57,West,271,16.0,21.0,14,0.00,,---,0.00,VWS V14.00,2013-04-08 16:50:00,
2013-04-08 11:53:00,73.3,22.9,29.57,WSW,243,13.0,21.0,15,0.00,,---,0.00,VWS V14.00,2013-04-08 16:53:00,
2013-04-08 11:55:00,73.2,22.8,29.57,SSW,209,10.0,21.0,15,0.00,,---,0.00,VWS V14.00,2013-04-08 16:55:00,
2013-04-08 11:58:00,73.7,23.2,29.57,SW,224,17.0,21.0,15,0.00,,---,0.00,VWS V14.00,2013-04-08 16:58:00,
2013-04-08 11:59:00,73.7,23.2,29.57,SW,224,17.0,21.0,15,0.00,,---,0.00,VWS V14.00,2013-04-08 16:59:00,
2013-04-08 12:00:00,73.7,23.2,29.57,SW,234,6.0,12.0,15,0.00,,---,0.00,VWS V14.00,2013-04-08 17:00:00,
2013-04-08 12:03:00,73.9,23.4,29.57,WSW,258,6.0,19.0,15,0.00,,---,0.00,VWS V14.00,2013-04-08 17:03:00,
2013-04-08 12:04:00,74.6,23.9,29.57,SW,226,2.0,19.0,15,0.00,,---,0.00,VWS V14.00,2013-04-08 17:04:00,
2013-04-08 12:05:00,73.9,23.4,29.57,SW,216,6.0,19.0,15,0.00,,---,0.00,VWS V14.00,2013-04-08 17:05:00,
2013-04-08 12:08:00,74.7,24.0,29.57,South,185,12.0,19.0,15,0.00,,---,0.00,VWS V14.00,2013-04-08 17:08:00,
2013-04-08 12:09:00,74.7,24.0,29.57,SW,219,13.0,19.0,15,0.00,,---,0.00,VWS V14.00,2013-04-08 17:09:00,
2013-04-08 12:10:00,74.7,24.0,29.57,South,189,12.0,19.0,15,0.00,,---,0.00,VWS V14.00,2013-04-08 17:10:00,
2013-04-08 12:13:00,74.9,24.2,29.57,SSW,196,10.0,19.0,15,0.00,,---,0.00,VWS V14.00,2013-04-08 17:13:00,
2013-04-08 12:15:00,74.9,24.2,29.56,West,265,10.0,19.0,15,0.00,,---,0.00,VWS V14.00,2013-04-08 17:15:00,
2013-04-08 12:18:00,75.3,24.5,29.56,South,189,17.0,19.0,15,0.00,,---,0.00,VWS V14.00,2013-04-08 17:18:00,
2013-04-08 12:20:00,75.3,24.5,29.56,South,189,17.0,19.0,15,0.00,,---,0.00,VWS V14.00,2013-04-08 17:20:00,
2013-04-08 12:21:00,75.3,24.5,29.56,South,189,17.0,19.0,15,0.00,,---,0.00,VWS V14.00,2013-04-08 17:21:00,
2013-04-08 12:23:00,75.4,24.6,29.56,WSW,248,13.0,19.0,15,0.00,,---,0.00,VWS V14.00,2013-04-08 17:23:00,
2013-04-08 12:25:00,74.6,23.9,29.56,West,268,11.0,19.0,15,0.00,,---,0.00,VWS V14.00,2013-04-08 17:25:00,
2013-04-08 12:26:00,74.6,23.9,29.56,West,281,11.0,19.0,15,0.00,,---,0.00,VWS V14.00,2013-04-08 17:26:00,
2013-04-08 12:27:00,74.6,23.9,29.56,West,281,11.0,19.0,15,0.00,,---,0.00,VWS V14.00,2013-04-08 17:27:00,
2013-04-08 12:29:00,74.6,22.3,29.55,WSW,253,0.0,19.0,14,0.00,,---,0.00,VWS V14.00,2013-04-08 17:29:00,
2013-04-08 12:31:00,74.9,22.5,29.55,SSW,206,0.0,11.0,14,0.00,,---,0.00,VWS V14.00,2013-04-08 17:31:00,
2013-04-08 12:32:00,75.4,21.2,29.55,West,264,6.0,14.0,13,0.00,,---,0.00,VWS V14.00,2013-04-08 17:32:00,
2013-04-08 12:35:00,76.0,21.6,29.55,SSW,208,3.0,14.0,13,0.00,,---,0.00,VWS V14.00,2013-04-08 17:35:00,
2013-04-08 12:37:00,75.8,21.5,29.55,SSW,196,11.0,16.0,13,0.00,,---,0.00,VWS V14.00,2013-04-08 17:37:00,
2013-04-08 12:40:00,76.0,19.8,29.55,WSW,237,12.0,16.0,12,0.00,,---,0.00,VWS V14.00,2013-04-08 17:40:00,
2013-04-08 12:42:00,76.1,19.9,29.55,WSW,248,2.0,16.0,12,0.00,,---,0.00,VWS V14.00,2013-04-08 17:42:00,
2013-04-08 12:43:00,76.0,21.6,29.55,WSW,248,6.0,16.0,13,0.00,,---,0.00,VWS V14.00,2013-04-08 17:43:00,
2013-04-08 12:45:00,75.8,21.5,29.53,South,191,3.0,21.0,13,0.00,,---,0.00,VWS V14.00,2013-04-08 17:45:00,
2013-04-08 12:48:00,75.3,22.9,29.53,SSW,213,6.0,21.0,14,0.00,,---,0.00,VWS V14.00,2013-04-08 17:48:00,
2013-04-08 12:49:00,75.8,19.6,29.53,SW,222,13.0,21.0,12,0.00,,---,0.00,VWS V14.00,2013-04-08 17:49:00,
2013-04-08 12:51:00,75.6,19.5,29.53,SSE,150,7.0,21.0,12,0.00,,---,0.00,VWS V14.00,2013-04-08 17:51:00,
2013-04-08 12:53:00,75.8,19.6,29.53,South,188,14.0,21.0,12,0.00,,---,0.00,VWS V14.00,2013-04-08 17:53:00,
2013-04-08 12:54:00,76.5,22.0,29.53,SSW,193,14.0,21.0,13,0.00,,---,0.00,VWS V14.00,2013-04-08 17:54:00,
2013-04-08 12:57:00,76.3,20.0,29.53,SW,215,9.0,21.0,12,0.00,,---,0.00,VWS V14.00,2013-04-08 17:57:00,
2013-04-08 12:58:00,76.7,20.3,29.53,South,185,0.0,21.0,12,0.00,,---,0.00,VWS V14.00,2013-04-08 17:58:00,
2013-04-08 12:59:00,76.3,18.0,29.53,SSE,162,2.0,2.0,11,0.00,,---,0.00,VWS V14.00,2013-04-08 17:59:00,
2013-04-08 13:02:00,76.8,18.4,29.53,SSW,205,17.0,17.0,11,0.00,,---,0.00,VWS V14.00,2013-04-08 18:02:00,
2013-04-08 13:03:00,76.8,18.4,29.53,SSW,205,17.0,17.0,11,0.00,,---,0.00,VWS V14.00,2013-04-08 18:03:00,
2013-04-08 13:04:00,76.8,18.4,29.53,SSW,205,17.0,17.0,11,0.00,,---,0.00,VWS V14.00,2013-04-08 18:04:00,
2013-04-08 13:07:00,76.8,18.4,29.53,SSW,205,17.0,17.0,11,0.00,,---,0.00,VWS V14.00,2013-04-08 18:07:00,
2013-04-08 13:08:00,76.8,18.4,29.53,SSW,193,7.0,17.0,11,0.00,,---,0.00,VWS V14.00,2013-04-08 18:08:00,
2013-04-08 13:09:00,76.8,18.4,29.53,SSW,193,7.0,17.0,11,0.00,,---,0.00,VWS V14.00,2013-04-08 18:09:00,
2013-04-08 13:10:00,77.0,18.5,29.53,SW,236,2.0,17.0,11,0.00,,---,0.00,VWS V14.00,2013-04-08 18:10:00,
2013-04-08 13:12:00,77.0,20.5,29.53,SW,222,9.0,17.0,12,0.00,,---,0.00,VWS V14.00,2013-04-08 18:12:00,
2013-04-08 13:13:00,76.8,22.3,29.53,SW,236,5.0,17.0,13,0.00,,---,0.00,VWS V14.00,2013-04-08 18:13:00,
2013-04-08 13:14:00,76.8,22.3,29.53,WSW,247,0.0,17.0,13,0.00,,---,0.00,VWS V14.00,2013-04-08 18:14:00,
2013-04-08 13:15:00,77.4,22.8,29.53,SSW,203,9.0,17.0,13,0.00,,---,0.00,VWS V14.00,2013-04-08 18:15:00,
2013-04-08 13:17:00,77.7,21.1,29.53,SSW,209,8.0,17.0,12,0.00,,---,0.00,VWS V14.00,2013-04-08 18:17:00,
2013-04-08 13:19:00,77.4,20.9,29.53,WSW,251,11.0,17.0,12,0.00,,---,0.00,VWS V14.00,2013-04-08 18:19:00,
2013-04-08 13:20:00,77.2,20.7,29.53,WSW,248,7.0,17.0,12,0.00,,---,0.00,VWS V14.00,2013-04-08 18:20:00,
2013-04-08 13:22:00,77.6,21.0,29.53,SW,227,8.0,17.0,12,0.00,,---,0.00,VWS V14.00,2013-04-08 18:22:00,
2013-04-08 13:24:00,77.0,22.4,29.53,SSW,203,0.0,17.0,13,0.00,,---,0.00,VWS V14.00,2013-04-08 18:24:00,
2013-04-08 13:25:00,76.8,22.3,29.53,SSW,203,0.0,17.0,13,0.00,,---,0.00,VWS V14.00,2013-04-08 18:25:00,
2013-04-08 13:27:00,77.6,22.9,29.53,WSW,240,8.0,17.0,13,0.00,,---,0.00,VWS V14.00,2013-04-08 18:27:00,
2013-04-08 13:29:00,77.9,21.2,29.52,SSE,164,6.0,17.0,12,0.00,,---,0.00,VWS V14.00,2013-04-08 18:29:00,
2013-04-08 13:30:00,77.9,21.2,29.52,SSW,196,0.0,6.0,12,0.00,,---,0.00,VWS V14.00,2013-04-08 18:30:00,
2013-04-08 13:32:00,78.1,21.4,29.52,SSW,205,2.0,19.0,12,0.00,,---,0.00,VWS V14.00,2013-04-08 18:32:00,
2013-04-08 13:34:00,77.9,21.2,29.52,South,184,6.0,19.0,12,0.00,,---,0.00,VWS V14.00,2013-04-08 18:34:00,
2013-04-08 13:35:00,78.1,21.4,29.52,WSW,241,5.0,19.0,12,0.00,,---,0.00,VWS V14.00,2013-04-08 18:35:00,
2013-04-08 13:36:00,78.1,21.4,29.52,SW,229,0.0,19.0,12,0.00,,---,0.00,VWS V14.00,2013-04-08 18:36:00,
2013-04-08 13:38:00,78.1,21.4,29.52,SW,236,11.0,19.0,12,0.00,,---,0.00,VWS V14.00,2013-04-08 18:38:00,
2013-04-08 13:39:00,78.1,19.4,29.52,SW,233,11.0,19.0,11,0.00,,---,0.00,VWS V14.00,2013-04-08 18:39:00,
2013-04-08 13:40:00,78.1,19.4,29.52,South,191,6.0,19.0,11,0.00,,---,0.00,VWS V14.00,2013-04-08 18:40:00,
2013-04-08 13:41:00,78.1,19.4,29.52,South,191,6.0,19.0,11,0.00,,---,0.00,VWS V14.00,2013-04-08 18:41:00,
2013-04-08 13:43:00,78.1,19.4,29.52,SSW,192,0.0,19.0,11,0.00,,---,0.00,VWS V14.00,2013-04-08 18:43:00,
2013-04-08 13:45:00,78.3,21.6,29.51,SSE,155,1.0,19.0,12,0.00,,---,0.00,VWS V14.00,2013-04-08 18:45:00,
2013-04-08 13:46:00,78.3,21.6,29.51,South,176,7.0,19.0,12,0.00,,---,0.00,VWS V14.00,2013-04-08 18:46:00,
2013-04-08 13:48:00,78.6,17.5,29.51,West,272,11.0,19.0,10,0.00,,---,0.00,VWS V14.00,2013-04-08 18:48:00,
2013-04-08 13:50:00,78.5,17.5,29.51,SW,227,5.0,19.0,10,0.00,,---,0.00,VWS V14.00,2013-04-08 18:50:00,
2013-04-08 13:51:00,78.3,17.3,29.51,SW,226,11.0,19.0,10,0.00,,---,0.00,VWS V14.00,2013-04-08 18:51:00,
2013-04-08 13:53:00,78.3,17.3,29.51,SW,220,2.0,19.0,10,0.00,,---,0.00,VWS V14.00,2013-04-08 18:53:00,
2013-04-08 13:55:00,78.8,22.0,29.51,SW,216,16.0,19.0,12,0.00,,---,0.00,VWS V14.00,2013-04-08 18:55:00,
2013-04-08 13:57:00,78.5,21.7,29.51,SSW,198,3.0,19.0,12,0.00,,---,0.00,VWS V14.00,2013-04-08 18:57:00,
2013-04-08 13:58:00,78.5,21.7,29.51,SSW,209,10.0,19.0,12,0.00,,---,0.00,VWS V14.00,2013-04-08 18:58:00,
2013-04-08 14:00:00,78.3,21.6,29.50,SW,219,12.0,13.0,12,0.00,,---,0.00,VWS V14.00,2013-04-08 19:00:00,
2013-04-08 14:02:00,78.3,19.5,29.50,SSW,203,10.0,15.0,11,0.00,,---,0.00,VWS V14.00,2013-04-08 19:02:00,
2013-04-08 14:03:00,78.3,19.5,29.50,SSW,200,11.0,19.0,11,0.00,,---,0.00,VWS V14.00,2013-04-08 19:03:00,
2013-04-08 14:05:00,78.5,19.7,29.50,SW,223,21.0,21.0,11,0.00,,---,0.00,VWS V14.00,2013-04-08 19:05:00,
2013-04-08 14:07:00,78.5,19.7,29.50,South,174,11.0,21.0,11,0.00,,---,0.00,VWS V14.00,2013-04-08 19:07:00,
2013-04-08 14:08:00,78.5,19.7,29.50,SSE,152,7.0,21.0,11,0.00,,---,0.00,VWS V14.00,2013-04-08 19:08:00,
2013-04-08 14:10:00,79.0,20.0,29.50,SW,219,14.0,21.0,11,0.00,,---,0.00,VWS V14.00,2013-04-08 19:10:00,
2013-04-08 14:11:00,79.0,20.0,29.50,SW,219,14.0,21.0,11,0.00,,---,0.00,VWS V14.00,2013-04-08 19:11:00,
2013-04-08 14:12:00,79.0,20.0,29.50,SW,219,14.0,21.0,11,0.00,,---,0.00,VWS V14.00,2013-04-08 19:12:00,
2013-04-08 14:13:00,79.0,20.0,29.50,SW,219,14.0,21.0,11,0.00,,---,0.00,VWS V14.00,2013-04-08 19:13:00,
2013-04-08 14:16:00,79.0,20.0,29.50,SSW,195,0.0,21.0,11,0.00,,---,0.00,VWS V14.00,2013-04-08 19:16:00,
2013-04-08 14:17:00,79.9,20.8,29.50,SW,230,12.0,21.0,11,0.00,,---,0.00,VWS V14.00,2013-04-08 19:17:00,
2013-04-08 14:18:00,79.9,20.8,29.50,West,270,7.0,21.0,11,0.00,,---,0.00,VWS V14.00,2013-04-08 19:18:00,
2013-04-08 14:21:00,79.9,20.8,29.50,SW,232,10.0,21.0,11,0.00,,---,0.00,VWS V14.00,2013-04-08 19:21:00,
2013-04-08 14:22:00,79.9,20.8,29.50,SW,232,10.0,21.0,11,0.00,,---,0.00,VWS V14.00,2013-04-08 19:22:00,
2013-04-08 14:23:00,79.9,20.8,29.50,SW,226,5.0,21.0,11,0.00,,---,0.00,VWS V14.00,2013-04-08 19:23:00,
2013-04-08 14:26:00,79.9,20.8,29.50,West,272,16.0,21.0,11,0.00,,---,0.00,VWS V14.00,2013-04-08 19:26:00,
2013-04-08 14:27:00,79.9,20.8,29.50,West,267,6.0,21.0,11,0.00,,---,0.00,VWS V14.00,2013-04-08 19:27:00,
2013-04-08 14:28:00,79.9,20.8,29.50,West,267,6.0,21.0,11,0.00,,---,0.00,VWS V14.00,2013-04-08 19:28:00,
2013-04-08 14:31:00,79.2,18.0,29.48,South,176,13.0,18.0,10,0.00,,---,0.00,VWS V14.00,2013-04-08 19:31:00,
2013-04-08 14:33:00,79.2,18.0,29.48,South,186,17.0,18.0,10,0.00,,---,0.00,VWS V14.00,2013-04-08 19:33:00,
2013-04-08 14:36:00,79.2,18.0,29.48,South,186,17.0,18.0,10,0.00,,---,0.00,VWS V14.00,2013-04-08 19:36:00,
2013-04-08 14:38:00,79.2,18.0,29.48,WSW,258,13.0,18.0,10,0.00,,---,0.00,VWS V14.00,2013-04-08 19:38:00,
2013-04-08 14:40:00,79.9,18.5,29.48,SW,216,12.0,18.0,10,0.00,,---,0.00,VWS V14.00,2013-04-08 19:40:00,
2013-04-08 14:41:00,79.2,18.0,29.48,SSW,199,19.0,22.0,10,0.00,,---,0.00,VWS V14.00,2013-04-08 19:41:00,
2013-04-08 14:43:00,79.0,17.8,29.48,SSW,200,20.0,22.0,10,0.00,,---,0.00,VWS V14.00,2013-04-08 19:43:00,
2013-04-08 14:45:00,79.0,17.8,29.49,SSW,200,20.0,22.0,10,0.00,,---,0.00,VWS V14.00,2013-04-08 19:45:00,
2013-04-08 14:47:00,79.0,17.8,29.49,SSW,200,20.0,22.0,10,0.00,,---,0.00,VWS V14.00,2013-04-08 19:47:00,
2013-04-08 14:48:00,79.0,17.8,29.49,SW,220,11.0,22.0,10,0.00,,---,0.00,VWS V14.00,2013-04-08 19:48:00,
2013-04-08 14:50:00,78.5,17.5,29.49,South,181,14.0,25.0,10,0.00,,---,0.00,VWS V14.00,2013-04-08 19:50:00,
2013-04-08 14:52:00,78.5,17.5,29.49,South,176,13.0,25.0,10,0.00,,---,0.00,VWS V14.00,2013-04-08 19:52:00,
2013-04-08 14:53:00,79.4,20.4,29.49,SW,224,6.0,25.0,11,0.00,,---,0.00,VWS V14.00,2013-04-08 19:53:00,
2013-04-08 14:55:00,79.6,20.5,29.49,WSW,253,12.0,25.0,11,0.00,,---,0.00,VWS V14.00,2013-04-08 19:55:00,
2013-04-08 14:57:00,79.0,20.0,29.49,West,278,5.0,25.0,11,0.00,,---,0.00,VWS V14.00,2013-04-08 19:57:00,
2013-04-08 14:58:00,79.2,20.2,29.49,SW,216,14.0,25.0,11,0.00,,---,0.00,VWS V14.00,2013-04-08 19:58:00,
2013-04-08 15:01:00,78.8,19.9,29.47,SSW,196,15.0,17.0,11,0.00,,---,0.00,VWS V14.00,2013-04-08 20:01:00,
2013-04-08 15:02:00,78.8,19.9,29.47,SSW,192,10.0,17.0,11,0.00,,---,0.00,VWS V14.00,2013-04-08 20:02:00,
2013-04-08 15:03:00,79.6,20.5,29.47,South,176,9.0,19.0,11,0.00,,---,0.00,VWS V14.00,2013-04-08 20:03:00,
2013-04-08 15:06:00,79.8,18.4,29.47,South,186,11.0,19.0,10,0.00,,---,0.00,VWS V14.00,2013-04-08 20:06:00,
2013-04-08 15:07:00,79.4,18.1,29.47,South,186,6.0,19.0,10,0.00,,---,0.00,VWS V14.00,2013-04-08 20:07:00,
2013-04-08 15:09:00,79.6,18.3,29.47,SSW,213,8.0,19.0,10,0.00,,---,0.00,VWS V14.00,2013-04-08 20:09:00,
2013-04-08 15:11:00,79.4,15.7,29.47,SSW,210,26.0,26.0,9,0.00,,---,0.00,VWS V14.00,2013-04-08 20:11:00,
2013-04-08 15:12:00,79.2,15.6,29.47,SW,224,6.0,26.0,9,0.00,,---,0.00,VWS V14.00,2013-04-08 20:12:00,
2013-04-08 15:14:00,79.0,15.4,29.47,SSW,199,17.0,26.0,9,0.00,,---,0.00,VWS V14.00,2013-04-08 20:14:00,
2013-04-08 15:17:00,78.8,15.2,29.47,SSW,210,13.0,26.0,9,0.00,,---,0.00,VWS V14.00,2013-04-08 20:17:00,
2013-04-08 15:19:00,78.6,15.1,29.47,SSW,212,20.0,26.0,9,0.00,,---,0.00,VWS V14.00,2013-04-08 20:19:00,
2013-04-08 15:22:00,78.3,14.9,29.47,SSW,206,8.0,26.0,9,0.00,,---,0.00,VWS V14.00,2013-04-08 20:22:00,
2013-04-08 15:24:00,79.2,15.6,29.47,SSW,205,7.0,26.0,9,0.00,,---,0.00,VWS V14.00,2013-04-08 20:24:00,
2013-04-08 15:25:00,79.2,15.6,29.47,SSE,168,10.0,26.0,9,0.00,,---,0.00,VWS V14.00,2013-04-08 20:25:00,
2013-04-08 15:27:00,79.2,15.6,29.47,SW,223,8.0,26.0,9,0.00,,---,0.00,VWS V14.00,2013-04-08 20:27:00,
2013-04-08 15:30:00,79.2,15.6,29.46,SSW,195,1.0,8.0,9,0.00,,---,0.00,VWS V14.00,2013-04-08 20:30:00,
2013-04-08 15:32:00,80.7,16.7,29.46,SW,217,20.0,24.0,9,0.00,,---,0.00,VWS V14.00,2013-04-08 20:32:00,
2013-04-08 15:35:00,80.5,16.5,29.46,SW,215,6.0,24.0,9,0.00,,---,0.00,VWS V14.00,2013-04-08 20:35:00,
2013-04-08 15:37:00,80.5,16.5,29.46,SW,215,6.0,24.0,9,0.00,,---,0.00,VWS V14.00,2013-04-08 20:37:00,
2013-04-08 15:40:00,80.3,16.4,29.46,SW,223,10.0,24.0,9,0.00,,---,0.00,VWS V14.00,2013-04-08 20:40:00,
2013-04-08 15:42:00,80.3,16.4,29.46,SW,232,12.0,24.0,9,0.00,,---,0.00,VWS V14.00,2013-04-08 20:42:00,
2013-04-08 15:45:00,80.1,16.2,29.45,SW,216,17.0,25.0,9,0.00,,---,0.00,VWS V14.00,2013-04-08 20:45:00,
2013-04-08 15:46:00,80.1,16.2,29.45,SW,216,17.0,25.0,9,0.00,,---,0.00,VWS V14.00,2013-04-08 20:46:00,
2013-04-08 15:47:00,80.5,16.5,29.45,SW,230,8.0,25.0,9,0.00,,---,0.00,VWS V14.00,2013-04-08 20:47:00,
2013-04-08 15:48:00,80.5,16.5,29.45,SW,230,8.0,25.0,9,0.00,,---,0.00,VWS V14.00,2013-04-08 20:48:00,
2013-04-08 15:50:00,80.3,16.4,29.45,SW,220,14.0,25.0,9,0.00,,---,0.00,VWS V14.00,2013-04-08 20:50:00,
2013-04-08 15:52:00,80.3,16.4,29.45,SW,227,10.0,25.0,9,0.00,,---,0.00,VWS V14.00,2013-04-08 20:52:00,
2013-04-08 15:53:00,80.5,16.5,29.45,SSW,196,1.0,25.0,9,0.00,,---,0.00,VWS V14.00,2013-04-08 20:53:00,
2013-04-08 15:56:00,80.5,16.5,29.45,SSW,196,2.0,25.0,9,0.00,,---,0.00,VWS V14.00,2013-04-08 20:56:00,
2013-04-08 15:57:00,80.5,16.5,29.45,SSW,196,2.0,25.0,9,0.00,,---,0.00,VWS V14.00,2013-04-08 20:57:00,
2013-04-08 15:58:00,80.5,16.5,29.45,SSW,199,10.0,25.0,9,0.00,,---,0.00,VWS V14.00,2013-04-08 20:58:00,
2013-04-08 16:01:00,80.1,16.2,29.44,South,189,17.0,17.0,9,0.00,,---,0.00,VWS V14.00,2013-04-08 21:01:00,
2013-04-08 16:02:00,80.1,16.2,29.44,South,189,17.0,17.0,9,0.00,,---,0.00,VWS V14.00,2013-04-08 21:02:00,
2013-04-08 16:03:00,79.4,15.7,29.44,South,189,11.0,17.0,9,0.00,,---,0.00,VWS V14.00,2013-04-08 21:03:00,
2013-04-08 16:06:00,79.8,16.0,29.44,SW,215,25.0,25.0,9,0.00,,---,0.00,VWS V14.00,2013-04-08 21:06:00,
2013-04-08 16:07:00,79.9,18.5,29.44,SSW,198,16.0,26.0,10,0.00,,---,0.00,VWS V14.00,2013-04-08 21:07:00,
2013-04-08 16:08:00,80.1,18.7,29.44,SSW,195,5.0,26.0,10,0.00,,---,0.00,VWS V14.00,2013-04-08 21:08:00,
2013-04-08 16:09:00,80.5,19.0,29.44,SW,229,18.0,26.0,10,0.00,,---,0.00,VWS V14.00,2013-04-08 21:09:00,
2013-04-08 16:11:00,80.5,19.0,29.44,SSW,208,5.0,26.0,10,0.00,,---,0.00,VWS V14.00,2013-04-08 21:11:00,
2013-04-08 16:12:00,80.5,19.0,29.44,SSW,192,18.0,26.0,10,0.00,,---,0.00,VWS V14.00,2013-04-08 21:12:00,
2013-04-08 16:13:00,79.8,20.7,29.44,SSW,205,16.0,26.0,11,0.00,,---,0.00,VWS V14.00,2013-04-08 21:13:00,
2013-04-08 16:14:00,79.9,18.5,29.45,SSW,202,6.0,26.0,10,0.00,,---,0.00,VWS V14.00,2013-04-08 21:14:00,
2013-04-08 16:16:00,79.4,15.7,29.45,SW,224,16.0,26.0,9,0.00,,---,0.00,VWS V14.00,2013-04-08 21:16:00,
2013-04-08 16:17:00,79.9,18.5,29.45,WSW,248,8.0,26.0,10,0.00,,---,0.00,VWS V14.00,2013-04-08 21:17:00,
2013-04-08 16:18:00,79.8,16.0,29.45,SW,229,12.0,26.0,9,0.00,,---,0.00,VWS V14.00,2013-04-08 21:18:00,
2013-04-08 16:19:00,79.9,18.5,29.45,WSW,239,2.0,26.0,10,0.00,,---,0.00,VWS V14.00,2013-04-08 21:19:00,
2013-04-08 16:22:00,80.1,18.7,29.45,SSW,209,15.0,26.0,10,0.00,,---,0.00,VWS V14.00,2013-04-08 21:22:00,
2013-04-08 16:23:00,79.9,16.1,29.45,SSW,195,6.0,26.0,9,0.00,,---,0.00,VWS V14.00,2013-04-08 21:23:00,
2013-04-08 16:24:00,80.1,16.2,29.45,SSW,213,17.0,26.0,9,0.00,,---,0.00,VWS V14.00,2013-04-08 21:24:00,
2013-04-08 16:27:00,79.6,20.5,29.45,South,179,5.0,26.0,11,0.00,,---,0.00,VWS V14.00,2013-04-08 21:27:00,
2013-04-08 16:29:00,79.6,18.3,29.43,South,174,13.0,26.0,10,0.00,,---,0.00,VWS V14.00,2013-04-08 21:29:00,
2013-04-08 16:30:00,80.1,18.7,29.43,WSW,241,9.0,11.0,10,0.00,,---,0.00,VWS V14.00,2013-04-08 21:30:00,
2013-04-08 16:32:00,79.8,18.4,29.43,South,171,6.0,26.0,10,0.00,,---,0.00,VWS V14.00,2013-04-08 21:32:00,
2013-04-08 16:34:00,80.1,18.7,29.43,SSW,195,0.0,26.0,10,0.00,,---,0.00,VWS V14.00,2013-04-08 21:34:00,
2013-04-08 16:35:00,80.1,18.7,29.43,SW,234,14.0,26.0,10,0.00,,---,0.00,VWS V14.00,2013-04-08 21:35:00,
2013-04-08 16:37:00,80.3,18.8,29.43,WSW,240,1.0,26.0,10,0.00,,---,0.00,VWS V14.00,2013-04-08 21:37:00,
2013-04-08 16:40:00,79.9,18.5,29.43,South,182,12.0,26.0,10,0.00,,---,0.00,VWS V14.00,2013-04-08 21:40:00,
2013-04-08 16:42:00,79.6,18.3,29.43,SSW,196,22.0,26.0,10,0.00,,---,0.00,VWS V14.00,2013-04-08 21:42:00,
2013-04-08 16:45:00,79.6,18.3,29.43,SW,216,11.0,26.0,10,0.00,,---,0.00,VWS V14.00,2013-04-08 21:45:00,
2013-04-08 16:46:00,79.6,18.3,29.43,SW,216,11.0,26.0,10,0.00,,---,0.00,VWS V14.00,2013-04-08 21:46:00,
2013-04-08 16:47:00,79.6,18.3,29.43,SW,216,11.0,26.0,10,0.00,,---,0.00,VWS V14.00,2013-04-08 21:47:00,
2013-04-08 16:50:00,79.8,18.4,29.43,SSW,210,8.0,26.0,10,0.00,,---,0.00,VWS V14.00,2013-04-08 21:50:00,
2013-04-08 16:51:00,79.9,18.5,29.43,SW,226,9.0,26.0,10,0.00,,---,0.00,VWS V14.00,2013-04-08 21:51:00,
2013-04-08 16:52:00,79.9,16.1,29.43,WSW,244,15.0,26.0,9,0.00,,---,0.00,VWS V14.00,2013-04-08 21:52:00,
2013-04-08 16:55:00,79.9,16.1,29.43,West,270,13.0,26.0,9,0.00,,---,0.00,VWS V14.00,2013-04-08 21:55:00,
2013-04-08 16:56:00,79.9,16.1,29.43,SW,226,12.0,26.0,9,0.00,,---,0.00,VWS V14.00,2013-04-08 21:56:00,
2013-04-08 16:57:00,79.9,16.1,29.43,SW,226,12.0,26.0,9,0.00,,---,0.00,VWS V14.00,2013-04-08 21:57:00,
2013-04-08 16:58:00,79.9,16.1,29.43,SW,226,12.0,26.0,9,0.00,,---,0.00,VWS V14.00,2013-04-08 21:58:00,
2013-04-08 17:00:00,79.9,16.1,29.42,SW,226,12.0,12.0,9,0.00,,---,0.00,VWS V14.00,2013-04-08 22:00:00,
2013-04-08 17:01:00,79.9,16.1,29.42,SW,226,12.0,12.0,9,0.00,,---,0.00,VWS V14.00,2013-04-08 22:01:00,
2013-04-08 17:03:00,79.9,16.1,29.42,SW,226,12.0,12.0,9,0.00,,---,0.00,VWS V14.00,2013-04-08 22:03:00,
2013-04-08 17:05:00,79.9,16.1,29.42,SW,226,12.0,12.0,9,0.00,,---,0.00,VWS V14.00,2013-04-08 22:05:00,
2013-04-08 17:06:00,79.9,16.1,29.42,SW,226,12.0,12.0,9,0.00,,---,0.00,VWS V14.00,2013-04-08 22:06:00,
2013-04-08 17:08:00,79.9,16.1,29.42,SW,226,12.0,12.0,9,0.00,,---,0.00,VWS V14.00,2013-04-08 22:08:00,
2013-04-08 17:09:00,79.9,16.1,29.42,SW,226,12.0,12.0,9,0.00,,---,0.00,VWS V14.00,2013-04-08 22:09:00,
2013-04-08 17:10:00,79.9,16.1,29.42,SW,226,12.0,12.0,9,0.00,,---,0.00,VWS V14.00,2013-04-08 22:10:00,
2013-04-08 17:11:00,79.9,16.1,29.42,SW,226,12.0,12.0,9,0.00,,---,0.00,VWS V14.00,2013-04-08 22:11:00,
2013-04-08 17:13:00,79.9,16.1,29.42,SW,226,12.0,12.0,9,0.00,,---,0.00,VWS V14.00,2013-04-08 22:13:00,
2013-04-08 17:14:00,79.9,16.1,29.54,SW,226,12.0,12.0,9,0.00,,---,0.00,VWS V14.00,2013-04-08 22:14:00,
2013-04-08 17:16:00,79.9,16.1,29.54,SW,226,12.0,12.0,9,0.00,,---,0.00,VWS V14.00,2013-04-08 22:16:00,
2013-04-08 17:17:00,79.9,16.1,29.54,SW,226,12.0,12.0,9,0.00,,---,0.00,VWS V14.00,2013-04-08 22:17:00,
2013-04-08 17:19:00,79.9,16.1,29.54,SW,226,12.0,12.0,9,0.00,,---,0.00,VWS V14.00,2013-04-08 22:19:00,
2013-04-08 17:20:00,79.9,16.1,29.54,SW,226,12.0,12.0,9,0.00,,---,0.00,VWS V14.00,2013-04-08 22:20:00,
2013-04-08 17:21:00,79.9,16.1,29.54,SW,226,12.0,12.0,9,0.00,,---,0.00,VWS V14.00,2013-04-08 22:21:00,
2013-04-08 17:22:00,79.9,16.1,29.54,SW,226,12.0,12.0,9,0.00,,---,0.00,VWS V14.00,2013-04-08 22:22:00,
2013-04-08 17:24:00,79.9,16.1,29.54,SW,226,12.0,12.0,9,0.00,,---,0.00,VWS V14.00,2013-04-08 22:24:00,
2013-04-08 17:25:00,79.9,16.1,29.54,SW,226,12.0,12.0,9,0.00,,---,0.00,VWS V14.00,2013-04-08 22:25:00,
2013-04-08 17:26:00,79.9,16.1,29.54,SW,226,12.0,12.0,9,0.00,,---,0.00,VWS V14.00,2013-04-08 22:26:00,
2013-04-08 17:27:00,79.9,16.1,29.54,SW,226,12.0,12.0,9,0.00,,---,0.00,VWS V14.00,2013-04-08 22:27:00,
2013-04-08 17:29:00,79.9,16.1,29.54,SW,226,12.0,12.0,9,0.00,,---,0.00,VWS V14.00,2013-04-08 22:29:00,
2013-04-08 17:30:00,79.9,16.1,29.54,SW,226,12.0,12.0,9,0.00,,---,0.00,VWS V14.00,2013-04-08 22:30:00,
2013-04-08 17:32:00,79.9,16.1,29.54,SW,226,12.0,12.0,9,0.00,,---,0.00,VWS V14.00,2013-04-08 22:32:00,
2013-04-08 17:34:00,79.9,16.1,29.54,SW,226,12.0,12.0,9,0.00,,---,0.00,VWS V14.00,2013-04-08 22:34:00,
2013-04-08 17:35:00,79.9,16.1,29.54,SW,226,12.0,12.0,9,0.00,,---,0.00,VWS V14.00,2013-04-08 22:35:00,
2013-04-08 17:37:00,79.9,16.1,29.54,SW,226,12.0,12.0,9,0.00,,---,0.00,VWS V14.00,2013-04-08 22:37:00,
2013-04-08 17:39:00,79.9,16.1,29.54,SW,226,12.0,12.0,9,0.00,,---,0.00,VWS V14.00,2013-04-08 22:39:00,
2013-04-08 17:40:00,79.9,16.1,29.54,SW,226,12.0,12.0,9,0.00,,---,0.00,VWS V14.00,2013-04-08 22:40:00,
2013-04-08 17:42:00,79.9,16.1,29.54,SW,226,12.0,12.0,9,0.00,,---,0.00,VWS V14.00,2013-04-08 22:42:00,
2013-04-08 17:43:00,79.9,16.1,29.54,SW,226,12.0,12.0,9,0.00,,---,0.00,VWS V14.00,2013-04-08 22:43:00,
2013-04-08 17:45:00,79.9,16.1,29.53,SW,226,12.0,12.0,9,0.00,,---,0.00,VWS V14.00,2013-04-08 22:45:00,
2013-04-08 17:46:00,79.9,16.1,29.53,SW,226,12.0,12.0,9,0.00,,---,0.00,VWS V14.00,2013-04-08 22:46:00,
2013-04-08 17:47:00,79.9,16.1,29.53,SW,226,12.0,12.0,9,0.00,,---,0.00,VWS V14.00,2013-04-08 22:47:00,
2013-04-08 17:48:00,79.9,16.1,29.53,SW,226,12.0,12.0,9,0.00,,---,0.00,VWS V14.00,2013-04-08 22:48:00,
2013-04-08 17:50:00,79.9,16.1,29.53,SW,226,12.0,12.0,9,0.00,,---,0.00,VWS V14.00,2013-04-08 22:50:00,
2013-04-08 17:51:00,79.9,16.1,29.53,SW,226,12.0,12.0,9,0.00,,---,0.00,VWS V14.00,2013-04-08 22:51:00,
2013-04-08 17:53:00,79.9,16.1,29.53,SW,226,12.0,12.0,9,0.00,,---,0.00,VWS V14.00,2013-04-08 22:53:00,
2013-04-08 17:55:00,79.9,16.1,29.53,SW,226,12.0,12.0,9,0.00,,---,0.00,VWS V14.00,2013-04-08 22:55:00,
2013-04-08 17:56:00,79.9,16.1,29.53,SW,226,12.0,12.0,9,0.00,,---,0.00,VWS V14.00,2013-04-08 22:56:00,
2013-04-08 17:58:00,79.9,16.1,29.53,SW,226,12.0,12.0,9,0.00,,---,0.00,VWS V14.00,2013-04-08 22:58:00,
2013-04-08 17:59:00,79.9,16.1,29.53,SW,226,12.0,12.0,9,0.00,,---,0.00,VWS V14.00,2013-04-08 22:59:00,
2013-04-08 18:01:00,79.9,16.1,29.53,SW,226,12.0,12.0,9,0.00,,---,0.00,VWS V14.00,2013-04-08 23:01:00,
2013-04-08 18:04:00,79.9,16.1,29.53,SW,226,12.0,12.0,9,0.00,,---,0.00,VWS V14.00,2013-04-08 23:04:00,
2013-04-08 18:05:00,79.9,16.1,29.53,SW,226,12.0,12.0,9,0.00,,---,0.00,VWS V14.00,2013-04-08 23:05:00,
2013-04-08 18:06:00,79.9,16.1,29.53,SW,226,12.0,12.0,9,0.00,,---,0.00,VWS V14.00,2013-04-08 23:06:00,
2013-04-08 18:09:00,79.9,16.1,29.53,SW,226,12.0,12.0,9,0.00,,---,0.00,VWS V14.00,2013-04-08 23:09:00,
2013-04-08 18:10:00,79.9,16.1,29.53,SW,226,12.0,12.0,9,0.00,,---,0.00,VWS V14.00,2013-04-08 23:10:00,
2013-04-08 18:11:00,79.9,16.1,29.53,SW,226,12.0,12.0,9,0.00,,---,0.00,VWS V14.00,2013-04-08 23:11:00,
2013-04-08 18:14:00,80.1,13.5,29.47,SW,216,12.0,18.0,8,0.00,,---,0.00,VWS V14.00,2013-04-08 23:14:00,
2013-04-08 18:15:00,80.1,13.5,29.47,SW,216,12.0,18.0,8,0.00,,---,0.00,VWS V14.00,2013-04-08 23:15:00,
2013-04-08 18:16:00,80.1,13.5,29.47,WSW,253,10.0,18.0,8,0.00,,---,0.00,VWS V14.00,2013-04-08 23:16:00,
2013-04-08 18:19:00,80.1,13.5,29.47,SSW,213,6.0,18.0,8,0.00,,---,0.00,VWS V14.00,2013-04-08 23:19:00,
2013-04-08 18:20:00,80.1,16.2,29.47,SW,222,10.0,18.0,9,0.00,,---,0.00,VWS V14.00,2013-04-08 23:20:00,
2013-04-08 18:21:00,80.1,16.2,29.47,SW,222,10.0,18.0,9,0.00,,---,0.00,VWS V14.00,2013-04-08 23:21:00,
2013-04-08 18:22:00,80.1,16.2,29.47,SW,222,10.0,18.0,9,0.00,,---,0.00,VWS V14.00,2013-04-08 23:22:00,
2013-04-08 18:24:00,80.1,16.2,29.47,South,179,8.0,18.0,9,0.00,,---,0.00,VWS V14.00,2013-04-08 23:24:00,
2013-04-08 18:25:00,80.1,16.2,29.47,South,179,8.0,18.0,9,0.00,,---,0.00,VWS V14.00,2013-04-08 23:25:00,
2013-04-08 18:27:00,80.1,16.2,29.47,South,182,9.0,18.0,9,0.00,,---,0.00,VWS V14.00,2013-04-08 23:27:00,
2013-04-08 18:29:00,79.4,15.7,29.34,SE,141,4.0,18.0,9,0.00,,---,0.00,VWS V14.00,2013-04-08 23:29:00,
2013-04-08 18:30:00,79.4,15.7,29.34,SE,141,4.0,4.0,9,0.00,,---,0.00,VWS V14.00,2013-04-08 23:30:00,
2013-04-08 18:32:00,79.4,15.7,29.34,South,176,11.0,11.0,9,0.00,,---,0.00,VWS V14.00,2013-04-08 23:32:00,
2013-04-08 18:34:00,79.2,15.6,29.34,South,174,1.0,19.0,9,0.00,,---,0.00,VWS V14.00,2013-04-08 23:34:00,
2013-04-08 18:35:00,79.4,15.7,29.34,SW,220,8.0,19.0,9,0.00,,---,0.00,VWS V14.00,2013-04-08 23:35:00,
2013-04-08 18:37:00,79.2,18.0,29.34,South,181,12.0,19.0,10,0.00,,---,0.00,VWS V14.00,2013-04-08 23:37:00,
2013-04-08 18:39:00,78.6,15.1,29.34,South,185,13.0,19.0,9,0.00,,---,0.00,VWS V14.00,2013-04-08 23:39:00,
2013-04-08 18:40:00,78.6,15.1,29.34,South,172,10.0,19.0,9,0.00,,---,0.00,VWS V14.00,2013-04-08 23:40:00,
2013-04-08 18:42:00,78.5,15.0,29.34,South,174,14.0,19.0,9,0.00,,---,0.00,VWS V14.00,2013-04-08 23:42:00,
2013-04-08 18:45:00,78.5,17.5,29.35,South,176,8.0,19.0,10,0.00,,---,0.00,VWS V14.00,2013-04-08 23:45:00,
2013-04-08 18:47:00,78.5,17.5,29.35,SSE,165,3.0,19.0,10,0.00,,---,0.00,VWS V14.00,2013-04-08 23:47:00,
2013-04-08 18:50:00,78.5,17.5,29.35,SSE,165,3.0,19.0,10,0.00,,---,0.00,VWS V14.00,2013-04-08 23:50:00,
2013-04-08 18:51:00,78.5,17.5,29.35,SSE,165,3.0,19.0,10,0.00,,---,0.00,VWS V14.00,2013-04-08 23:51:00,
2013-04-08 18:52:00,78.5,17.5,29.35,SSE,165,3.0,19.0,10,0.00,,---,0.00,VWS V14.00,2013-04-08 23:52:00,
2013-04-08 18:55:00,78.5,17.5,29.35,South,171,6.0,19.0,10,0.00,,---,0.00,VWS V14.00,2013-04-08 23:55:00,
2013-04-08 18:56:00,78.5,17.5,29.35,SSW,196,8.0,19.0,10,0.00,,---,0.00,VWS V14.00,2013-04-08 23:56:00,
2013-04-08 18:57:00,78.5,17.5,29.35,SSW,196,8.0,19.0,10,0.00,,---,0.00,VWS V14.00,2013-04-08 23:57:00,
2013-04-08 19:00:00,78.3,17.3,29.34,SSE,155,5.0,8.0,10,0.00,,---,0.00,VWS V14.00,2013-04-09 00:00:00,
2013-04-08 19:02:00,78.3,17.3,29.34,South,182,7.0,10.0,10,0.00,,---,0.00,VWS V14.00,2013-04-09 00:02:00,
2013-04-08 19:05:00,78.3,17.3,29.34,South,186,3.0,13.0,10,0.00,,---,0.00,VWS V14.00,2013-04-09 00:05:00,
2013-04-08 19:07:00,78.1,17.1,29.34,SSE,155,0.0,13.0,10,0.00,,---,0.00,VWS V14.00,2013-04-09 00:07:00,
2013-04-08 19:10:00,78.1,17.1,29.34,South,188,2.0,13.0,10,0.00,,---,0.00,VWS V14.00,2013-04-09 00:10:00,
2013-04-08 19:13:00,77.9,17.0,29.34,SSW,198,2.0,18.0,10,0.00,,---,0.00,VWS V14.00,2013-04-09 00:13:00,
2013-04-08 19:15:00,77.9,17.0,29.30,South,175,7.0,18.0,10,0.00,,---,0.00,VWS V14.00,2013-04-09 00:15:00,
2013-04-08 19:18:00,77.9,17.0,29.30,South,178,3.0,18.0,10,0.00,,---,0.00,VWS V14.00,2013-04-09 00:18:00,
2013-04-08 19:19:00,77.9,19.2,29.30,SSE,152,3.0,18.0,11,0.00,,---,0.00,VWS V14.00,2013-04-09 00:19:00,
2013-04-08 19:20:00,77.7,19.0,29.30,SSE,165,5.0,18.0,11,0.00,,---,0.00,VWS V14.00,2013-04-09 00:20:00,
2013-04-08 19:23:00,77.7,19.0,29.30,South,182,4.0,18.0,11,0.00,,---,0.00,VWS V14.00,2013-04-09 00:23:00,
2013-04-08 19:24:00,77.6,19.0,29.30,South,182,0.0,18.0,11,0.00,,---,0.00,VWS V14.00,2013-04-09 00:24:00,
2013-04-08 19:25:00,77.6,16.8,29.30,SSE,151,0.0,18.0,10,0.00,,---,0.00,VWS V14.00,2013-04-09 00:25:00,
2013-04-08 19:28:00,77.6,16.8,29.30,SSW,198,3.0,18.0,10,0.00,,---,0.00,VWS V14.00,2013-04-09 00:28:00,
2013-04-08 19:29:00,77.6,19.0,29.30,South,175,13.0,18.0,11,0.00,,---,0.00,VWS V14.00,2013-04-09 00:29:00,
2013-04-08 19:30:00,77.4,16.6,29.30,South,191,1.0,10.0,10,0.00,,---,0.00,VWS V14.00,2013-04-09 00:30:00,
2013-04-08 19:33:00,77.4,18.8,29.30,South,191,2.0,12.0,11,0.00,,---,0.00,VWS V14.00,2013-04-09 00:33:00,
2013-04-08 19:34:00,77.4,18.8,29.30,South,191,2.0,12.0,11,0.00,,---,0.00,VWS V14.00,2013-04-09 00:34:00,
2013-04-08 19:36:00,77.4,18.8,29.30,SSW,196,6.0,12.0,11,0.00,,---,0.00,VWS V14.00,2013-04-09 00:36:00,
2013-04-08 19:38:00,77.0,20.5,29.30,SSE,147,14.0,14.0,12,0.00,,---,0.00,VWS V14.00,2013-04-09 00:38:00,
2013-04-08 19:39:00,77.0,20.5,29.30,South,174,2.0,14.0,12,0.00,,---,0.00,VWS V14.00,2013-04-09 00:39:00,
2013-04-08 19:41:00,76.8,20.4,29.30,South,189,12.0,14.0,12,0.00,,---,0.00,VWS V14.00,2013-04-09 00:41:00,
2013-04-08 19:43:00,76.7,18.3,29.30,SSE,165,4.0,19.0,11,0.00,,---,0.00,VWS V14.00,2013-04-09 00:43:00,
2013-04-08 19:44:00,76.7,18.3,29.29,SSE,164,2.0,19.0,11,0.00,,---,0.00,VWS V14.00,2013-04-09 00:44:00,
2013-04-08 19:45:00,76.7,18.3,29.29,SSE,162,3.0,19.0,11,0.00,,---,0.00,VWS V14.00,2013-04-09 00:45:00,
2013-04-08 19:46:00,76.5,18.1,29.29,SSW,198,3.0,19.0,11,0.00,,---,0.00,VWS V14.00,2013-04-09 00:46:00,
2013-04-08 19:48:00,76.5,18.1,29.29,SSE,164,1.0,19.0,11,0.00,,---,0.00,VWS V14.00,2013-04-09 00:48:00,
2013-04-08 19:49:00,76.5,18.1,29.29,SSW,193,9.0,19.0,11,0.00,,---,0.00,VWS V14.00,2013-04-09 00:49:00,
2013-04-08 19:50:00,76.3,18.0,29.29,South,188,3.0,19.0,11,0.00,,---,0.00,VWS V14.00,2013-04-09 00:50:00,
2013-04-08 19:51:00,76.3,18.0,29.29,SSW,198,1.0,19.0,11,0.00,,---,0.00,VWS V14.00,2013-04-09 00:51:00,
2013-04-08 19:54:00,76.3,18.0,29.29,SSW,199,10.0,19.0,11,0.00,,---,0.00,VWS V14.00,2013-04-09 00:54:00,
2013-04-08 19:55:00,76.3,18.0,29.29,South,184,11.0,19.0,11,0.00,,---,0.00,VWS V14.00,2013-04-09 00:55:00,
2013-04-08 19:56:00,76.3,18.0,29.29,SSW,192,0.0,19.0,11,0.00,,---,0.00,VWS V14.00,2013-04-09 00:56:00,
2013-04-08 19:59:00,76.1,17.8,29.30,South,171,7.0,19.0,11,0.00,,---,0.00,VWS V14.00,2013-04-09 00:59:00,
2013-04-08 20:00:00,76.1,17.8,29.30,South,179,7.0,7.0,11,0.00,,---,0.00,VWS V14.00,2013-04-09 01:00:00,
2013-04-08 20:01:00,76.1,19.9,29.30,South,172,5.0,13.0,12,0.00,,---,0.00,VWS V14.00,2013-04-09 01:01:00,
2013-04-08 20:05:00,76.0,19.8,29.30,SSW,202,3.0,13.0,12,0.00,,---,0.00,VWS V14.00,2013-04-09 01:05:00,
2013-04-08 20:07:00,76.0,19.8,29.30,SW,216,10.0,18.0,12,0.00,,---,0.00,VWS V14.00,2013-04-09 01:07:00,
2013-04-08 20:10:00,75.8,17.6,29.30,SSW,195,22.0,22.0,11,0.00,,---,0.00,VWS V14.00,2013-04-09 01:10:00,
2013-04-08 20:11:00,75.8,17.6,29.30,SSW,195,18.0,22.0,11,0.00,,---,0.00,VWS V14.00,2013-04-09 01:11:00,
2013-04-08 20:12:00,75.6,17.4,29.30,South,181,2.0,22.0,11,0.00,,---,0.00,VWS V14.00,2013-04-09 01:12:00,
2013-04-08 20:15:00,75.4,19.3,29.26,SSE,155,0.0,22.0,12,0.00,,---,0.00,VWS V14.00,2013-04-09 01:15:00,
2013-04-08 20:16:00,75.4,19.3,29.26,SSE,160,0.0,22.0,12,0.00,,---,0.00,VWS V14.00,2013-04-09 01:16:00,
2013-04-08 20:17:00,75.3,19.2,29.26,South,184,1.0,22.0,12,0.00,,---,0.00,VWS V14.00,2013-04-09 01:17:00,
2013-04-08 20:20:00,75.1,19.1,29.26,SSE,162,0.0,22.0,12,0.00,,---,0.00,VWS V14.00,2013-04-09 01:20:00,
2013-04-08 20:21:00,74.9,18.9,29.26,SSE,165,0.0,22.0,12,0.00,,---,0.00,VWS V14.00,2013-04-09 01:21:00,
2013-04-08 20:22:00,74.7,18.8,29.26,SSW,200,0.0,22.0,12,0.00,,---,0.00,VWS V14.00,2013-04-09 01:22:00,
2013-04-08 20:25:00,74.4,18.5,29.26,SSW,202,0.0,22.0,12,0.00,,---,0.00,VWS V14.00,2013-04-09 01:25:00,
2013-04-08 20:26:00,74.2,18.4,29.26,SSE,160,0.0,22.0,12,0.00,,---,0.00,VWS V14.00,2013-04-09 01:26:00,
2013-04-08 20:28:00,74.2,18.4,29.26,SSE,168,2.0,22.0,12,0.00,,---,0.00,VWS V14.00,2013-04-09 01:28:00,
2013-04-08 20:30:00,74.6,18.7,29.27,SE,124,0.0,5.0,12,0.00,,---,0.00,VWS V14.00,2013-04-09 01:30:00,
2013-04-08 20:31:00,74.6,18.7,29.27,SE,124,0.0,5.0,12,0.00,,---,0.00,VWS V14.00,2013-04-09 01:31:00,
2013-04-08 20:32:00,74.4,20.4,29.27,SSE,168,2.0,6.0,13,0.00,,---,0.00,VWS V14.00,2013-04-09 01:32:00,
2013-04-08 20:33:00,74.4,18.5,29.27,SSE,168,2.0,6.0,12,0.00,,---,0.00,VWS V14.00,2013-04-09 01:33:00,
2013-04-08 20:35:00,74.4,20.4,29.27,South,182,0.0,7.0,13,0.00,,---,0.00,VWS V14.00,2013-04-09 01:35:00,
2013-04-08 20:36:00,74.6,18.7,29.27,South,186,3.0,19.0,12,0.00,,---,0.00,VWS V14.00,2013-04-09 01:36:00,
2013-04-08 20:37:00,74.6,18.7,29.27,South,176,0.0,19.0,12,0.00,,---,0.00,VWS V14.00,2013-04-09 01:37:00,
2013-04-08 20:38:00,74.4,18.5,29.27,South,171,1.0,19.0,12,0.00,,---,0.00,VWS V14.00,2013-04-09 01:38:00,
2013-04-08 20:41:00,74.6,18.7,29.27,SE,126,0.0,19.0,12,0.00,,---,0.00,VWS V14.00,2013-04-09 01:41:00,
2013-04-08 20:42:00,74.6,18.7,29.27,SSE,161,0.0,19.0,12,0.00,,---,0.00,VWS V14.00,2013-04-09 01:42:00,
2013-04-08 20:43:00,74.4,18.5,29.27,South,174,0.0,19.0,12,0.00,,---,0.00,VWS V14.00,2013-04-09 01:43:00,
2013-04-08 20:46:00,74.2,18.4,29.27,South,176,0.0,19.0,12,0.00,,---,0.00,VWS V14.00,2013-04-09 01:46:00,
2013-04-08 20:47:00,74.2,18.4,29.27,South,179,0.0,19.0,12,0.00,,---,0.00,VWS V14.00,2013-04-09 01:47:00,
2013-04-08 20:50:00,74.2,16.4,29.27,South,178,4.0,19.0,11,0.00,,---,0.00,VWS V14.00,2013-04-09 01:50:00,
2013-04-08 20:51:00,74.0,16.2,29.27,South,189,4.0,19.0,11,0.00,,---,0.00,VWS V14.00,2013-04-09 01:51:00,
2013-04-08 20:52:00,74.2,18.4,29.27,South,176,2.0,19.0,12,0.00,,---,0.00,VWS V14.00,2013-04-09 01:52:00,
2013-04-08 20:55:00,74.0,18.2,29.27,South,172,0.0,19.0,12,0.00,,---,0.00,VWS V14.00,2013-04-09 01:55:00,
2013-04-08 20:56:00,74.0,18.2,29.27,South,191,6.0,19.0,12,0.00,,---,0.00,VWS V14.00,2013-04-09 01:56:00,
2013-04-08 20:57:00,74.0,18.2,29.27,South,171,1.0,19.0,12,0.00,,---,0.00,VWS V14.00,2013-04-09 01:57:00,
2013-04-08 21:00:00,74.0,18.2,29.27,South,175,5.0,11.0,12,0.00,,---,0.00,VWS V14.00,2013-04-09 02:00:00,
2013-04-08 21:02:00,74.2,18.4,29.27,SSE,162,3.0,12.0,12,0.00,,---,0.00,VWS V14.00,2013-04-09 02:02:00,
2013-04-08 21:05:00,74.2,18.4,29.27,SSE,164,10.0,13.0,12,0.00,,---,0.00,VWS V14.00,2013-04-09 02:05:00,
2013-04-08 21:07:00,74.4,18.5,29.27,SSE,158,1.0,13.0,12,0.00,,---,0.00,VWS V14.00,2013-04-09 02:07:00,
2013-04-08 21:08:00,74.4,18.5,29.27,SSE,154,5.0,13.0,12,0.00,,---,0.00,VWS V14.00,2013-04-09 02:08:00,
2013-04-08 21:10:00,74.2,18.4,29.27,SSE,167,6.0,14.0,12,0.00,,---,0.00,VWS V14.00,2013-04-09 02:10:00,
2013-04-08 21:12:00,74.0,18.2,29.27,SSE,157,5.0,14.0,12,0.00,,---,0.00,VWS V14.00,2013-04-09 02:12:00,
2013-04-08 21:13:00,74.0,18.2,29.27,SSE,157,5.0,14.0,12,0.00,,---,0.00,VWS V14.00,2013-04-09 02:13:00,
2013-04-08 21:15:00,73.9,18.1,29.23,SSE,167,2.0,14.0,12,0.00,,---,0.00,VWS V14.00,2013-04-09 02:15:00,
2013-04-08 21:17:00,73.7,18.0,29.23,South,182,2.0,14.0,12,0.00,,---,0.00,VWS V14.00,2013-04-09 02:17:00,
2013-04-08 21:18:00,73.7,18.0,29.23,South,178,5.0,14.0,12,0.00,,---,0.00,VWS V14.00,2013-04-09 02:18:00,
2013-04-08 21:21:00,73.7,18.0,29.23,SSE,165,4.0,14.0,12,0.00,,---,0.00,VWS V14.00,2013-04-09 02:21:00,
2013-04-08 21:22:00,73.9,18.1,29.23,SSE,167,5.0,14.0,12,0.00,,---,0.00,VWS V14.00,2013-04-09 02:22:00,
2013-04-08 21:23:00,73.9,18.1,29.23,SSE,167,5.0,14.0,12,0.00,,---,0.00,VWS V14.00,2013-04-09 02:23:00,
2013-04-08 21:26:00,73.5,19.7,29.23,SSE,160,2.0,14.0,13,0.00,,---,0.00,VWS V14.00,2013-04-09 02:26:00,
2013-04-08 21:28:00,73.7,18.0,29.23,South,175,6.0,14.0,12,0.00,,---,0.00,VWS V14.00,2013-04-09 02:28:00,
2013-04-08 21:31:00,73.9,18.1,29.23,SSE,151,9.0,10.0,12,0.00,,---,0.00,VWS V14.00,2013-04-09 02:31:00,
2013-04-08 21:33:00,73.9,18.1,29.23,South,179,8.0,12.0,12,0.00,,---,0.00,VWS V14.00,2013-04-09 02:33:00,
2013-04-08 21:37:00,73.7,18.0,29.23,SSE,154,2.0,12.0,12,0.00,,---,0.00,VWS V14.00,2013-04-09 02:37:00,
2013-04-08 21:38:00,73.7,18.0,29.23,SSE,154,2.0,12.0,12,0.00,,---,0.00,VWS V14.00,2013-04-09 02:38:00,
2013-04-08 21:39:00,73.2,19.5,29.23,South,175,5.0,12.0,13,0.00,,---,0.00,VWS V14.00,2013-04-09 02:39:00,
2013-04-08 21:42:00,72.8,19.1,29.23,SSE,167,2.0,12.0,13,0.00,,---,0.00,VWS V14.00,2013-04-09 02:42:00,
2013-04-08 21:43:00,72.8,19.1,29.23,SSE,167,9.0,12.0,13,0.00,,---,0.00,VWS V14.00,2013-04-09 02:43:00,
2013-04-08 21:44:00,73.0,17.4,29.25,SSE,162,3.0,12.0,12,0.00,,---,0.00,VWS V14.00,2013-04-09 02:44:00,
2013-04-08 21:47:00,73.9,18.1,29.25,South,169,2.0,17.0,12,0.00,,---,0.00,VWS V14.00,2013-04-09 02:47:00,
2013-04-08 21:48:00,73.7,18.0,29.25,SSW,203,11.0,17.0,12,0.00,,---,0.00,VWS V14.00,2013-04-09 02:48:00,
2013-04-08 21:49:00,74.0,18.2,29.25,South,188,5.0,17.0,12,0.00,,---,0.00,VWS V14.00,2013-04-09 02:49:00,
2013-04-08 21:52:00,74.2,18.4,29.25,South,179,10.0,17.0,12,0.00,,---,0.00,VWS V14.00,2013-04-09 02:52:00,
2013-04-08 21:53:00,74.6,18.7,29.25,SSE,164,12.0,18.0,12,0.00,,---,0.00,VWS V14.00,2013-04-09 02:53:00,
2013-04-08 21:55:00,74.7,14.6,29.25,SSW,192,17.0,19.0,10,0.00,,---,0.00,VWS V14.00,2013-04-09 02:55:00,
2013-04-08 21:58:00,75.1,19.1,29.25,South,169,3.0,19.0,12,0.00,,---,0.00,VWS V14.00,2013-04-09 02:58:00,
2013-04-08 21:59:00,75.3,19.2,29.23,South,182,8.0,19.0,12,0.00,,---,0.00,VWS V14.00,2013-04-09 02:59:00,
2013-04-08 22:00:00,75.1,19.1,29.23,SSW,196,10.0,12.0,12,0.00,,---,0.00,VWS V14.00,2013-04-09 03:00:00,
2013-04-08 22:03:00,75.1,14.9,29.23,SSW,209,17.0,17.0,10,0.00,,---,0.00,VWS V14.00,2013-04-09 03:03:00,
2013-04-08 22:04:00,75.3,17.2,29.23,SSW,200,2.0,17.0,11,0.00,,---,0.00,VWS V14.00,2013-04-09 03:04:00,
2013-04-08 22:05:00,75.1,17.0,29.23,SSW,200,0.0,17.0,11,0.00,,---,0.00,VWS V14.00,2013-04-09 03:05:00,
2013-04-08 22:08:00,74.7,16.7,29.23,SSW,202,0.0,17.0,11,0.00,,---,0.00,VWS V14.00,2013-04-09 03:08:00,
2013-04-08 22:10:00,74.4,16.5,29.23,SSW,203,0.0,17.0,11,0.00,,---,0.00,VWS V14.00,2013-04-09 03:10:00,
2013-04-08 22:13:00,73.7,18.0,29.23,South,175,2.0,17.0,12,0.00,,---,0.00,VWS V14.00,2013-04-09 03:13:00,
2013-04-08 22:15:00,73.7,18.0,29.24,South,185,10.0,17.0,12,0.00,,---,0.00,VWS V14.00,2013-04-09 03:15:00,
2013-04-08 22:16:00,73.7,18.0,29.24,South,186,7.0,17.0,12,0.00,,---,0.00,VWS V14.00,2013-04-09 03:16:00,
2013-04-08 22:18:00,73.7,18.0,29.24,SSW,202,3.0,17.0,12,0.00,,---,0.00,VWS V14.00,2013-04-09 03:18:00,
2013-04-08 22:20:00,74.2,18.4,29.24,SW,216,6.0,17.0,12,0.00,,---,0.00,VWS V14.00,2013-04-09 03:20:00,
2013-04-08 22:21:00,74.2,18.4,29.24,SW,216,6.0,17.0,12,0.00,,---,0.00,VWS V14.00,2013-04-09 03:21:00,
2013-04-08 22:23:00,74.4,18.5,29.24,South,169,0.0,17.0,12,0.00,,---,0.00,VWS V14.00,2013-04-09 03:23:00,